Alakanuk, Alaska
Current Conditions -  °F | °C
As of 7:16 PM on Wednesday 26 Nov 2014 (Local Time) from PAEM Reporting Station
Overcast Overcast  
Wind Chill: 15°   Ceiling: 3900
Heat Index: 27°   Visibility: 10mi
Dew Point: 19°   Wind: 15mph
Humidity: 74%   Direction: 120°ESE
Pressure: 30.15"   Gusts: NA
Location:  62.69°N, 164.62°W
Report Text: PAEM 270416Z AUTO 12013KT 10SM FEW023 OVC039 M03/M07 A3015 RMK AO1
Loading
Personal Weather Stations






























Interactive Weather Map New forecast layout! Learn more

10-Day Weather Forecast

Advertisements
Track Severe Weather on mobile